Time;durP1;ratioP1;P1;durP2;ratioP2;P2;SDS_P1;SDS_P2;PMS_P1;PMS_P2;Temp;Humidity;BMP_temperature;BMP_pressure;BME280_temperature;BME280_humidity;BME280_pressure;Samples;Min_cycle;Max_cycle;Signal;HPM_P1;HPM_P2
2024/01/04 00:01:12;;;;;;;4.57;2.60;;;;;;;6.81;nan;99472.91;4992700;28;20357;-68
2024/01/04 00:03:37;;;;;;;4.82;2.20;;;;;;;6.81;nan;99472.09;5013127;28;20029;-69
2024/01/04 00:06:06;;;;;;;3.40;1.92;;;;;;;6.83;nan;99472.69;5012069;28;20026;-67
2024/01/04 00:08:31;;;;;;;2.97;1.77;;;;;;;6.82;nan;99458.81;5015061;28;20029;-68
2024/01/04 00:10:58;;;;;;;2.97;1.60;;;;;;;6.88;nan;99459.72;5012303;28;20026;-70
2024/01/04 00:13:24;;;;;;;2.85;1.65;;;;;;;7.03;nan;99472.41;4984032;28;20037;-69
2024/01/04 00:15:49;;;;;;;1.70;1.20;;;;;;;7.11;nan;99479.13;4992788;28;20031;-68
2024/01/04 00:18:15;;;;;;;3.15;1.65;;;;;;;7.12;nan;99465.81;5011422;28;20029;-68
2024/01/04 00:20:40;;;;;;;1.80;1.23;;;;;;;7.12;nan;99460.59;5013651;28;20054;-68
2024/01/04 00:23:05;;;;;;;4.88;1.50;;;;;;;7.25;nan;99467.41;5012152;28;20393;-69
2024/01/04 00:25:31;;;;;;;3.08;1.52;;;;;;;7.17;nan;99449.44;5010875;28;20034;-69
2024/01/04 00:27:56;;;;;;;3.15;1.33;;;;;;;7.30;nan;99467.53;5014224;28;20479;-69
2024/01/04 00:30:22;;;;;;;3.10;1.40;;;;;;;7.30;nan;99458.88;5011707;28;20033;-69
2024/01/04 00:32:47;;;;;;;4.25;1.52;;;;;;;7.30;nan;99461.50;5009991;28;20452;-69
2024/01/04 00:35:13;;;;;;;2.35;1.40;;;;;;;7.30;nan;99464.13;5011262;28;20045;-69
2024/01/04 00:37:38;;;;;;;1.50;1.25;;;;;;;7.36;nan;99471.88;5013042;28;20034;-68
2024/01/04 00:40:04;;;;;;;2.15;1.40;;;;;;;7.33;nan;99474.97;4995397;28;20061;-69
2024/01/04 00:42:30;;;;;;;3.60;1.55;;;;;;;7.37;nan;99473.47;5012417;28;20026;-68
2024/01/04 00:44:55;;;;;;;2.63;1.42;;;;;;;7.28;nan;99448.66;5010021;28;20037;-69
2024/01/04 00:47:21;;;;;;;3.17;1.38;;;;;;;7.26;nan;99450.69;5011015;28;20017;-68
2024/01/04 00:49:47;;;;;;;2.58;1.88;;;;;;;7.07;nan;99426.44;5009686;28;20021;-67
2024/01/04 00:52:12;;;;;;;2.47;1.50;;;;;;;7.31;nan;99458.66;5013112;28;20490;-68
2024/01/04 00:54:37;;;;;;;2.80;1.63;;;;;;;7.32;nan;99467.31;5009854;28;20026;-68
2024/01/04 00:57:03;;;;;;;2.75;1.83;;;;;;;7.29;nan;99463.34;5010920;28;20058;-68
2024/01/04 00:59:29;;;;;;;4.18;1.80;;;;;;;7.24;nan;99453.53;5011713;28;20049;-67
2024/01/04 01:01:54;;;;;;;3.20;1.88;;;;;;;7.23;nan;99445.91;5012822;28;20057;-66
2024/01/04 01:04:20;;;;;;;4.18;2.00;;;;;;;7.04;nan;99421.66;5009779;28;20030;-68
2024/01/04 01:06:45;;;;;;;3.38;1.85;;;;;;;7.24;nan;99455.38;5011114;28;20353;-68
2024/01/04 01:09:10;;;;;;;3.67;1.80;;;;;;;7.18;nan;99446.59;5011228;28;20030;-66
2024/01/04 01:11:36;;;;;;;3.53;2.47;;;;;;;7.19;nan;99457.88;4992260;28;20779;-69
2024/01/04 01:14:02;;;;;;;3.65;2.05;;;;;;;7.15;nan;99454.09;5012308;28;20071;-67
2024/01/04 01:16:28;;;;;;;3.75;2.45;;;;;;;7.16;nan;99448.66;4993304;28;20128;-67
2024/01/04 01:18:53;;;;;;;3.65;2.33;;;;;;;7.11;nan;99447.69;4991386;28;20547;-67
2024/01/04 01:21:19;;;;;;;4.47;2.58;;;;;;;6.98;nan;99425.16;5009035;28;20050;-68
2024/01/04 01:23:44;;;;;;;5.03;2.58;;;;;;;7.05;nan;99443.38;5010240;28;20056;-68
2024/01/04 01:26:09;;;;;;;5.32;2.50;;;;;;;7.05;nan;99438.94;4992161;28;20022;-67
2024/01/04 01:28:35;;;;;;;4.13;2.70;;;;;;;7.05;nan;99443.38;5009175;28;20037;-67
2024/01/04 01:31:01;;;;;;;4.38;2.55;;;;;;;6.96;nan;99429.81;4991008;28;20076;-68
2024/01/04 01:33:27;;;;;;;4.70;2.85;;;;;;;6.93;nan;99433.69;5008948;28;20018;-66
2024/01/04 01:35:52;;;;;;;5.97;2.90;;;;;;;6.82;nan;99414.34;5010568;28;20066;-67
2024/01/04 01:38:18;;;;;;;5.20;3.20;;;;;;;6.97;nan;99434.03;4990376;28;20385;-67
2024/01/04 01:40:43;;;;;;;5.85;2.85;;;;;;;6.89;nan;99423.88;5009843;28;20480;-68
2024/01/04 01:43:11;;;;;;;5.05;3.30;;;;;;;6.89;nan;99436.97;4992275;28;20036;-67
2024/01/04 01:45:36;;;;;;;6.10;3.40;;;;;;;6.80;nan;99434.69;5011525;28;20022;-68
2024/01/04 01:48:02;;;;;;;8.70;4.10;;;;;;;6.85;nan;99420.13;5009134;28;20475;-67
2024/01/04 01:50:28;;;;;;;5.70;3.95;;;;;;;6.76;nan;99417.81;5009083;28;20443;-69
2024/01/04 01:52:54;;;;;;;5.53;3.50;;;;;;;6.82;nan;99426.59;5007902;28;20033;-69
2024/01/04 01:55:20;;;;;;;6.35;3.78;;;;;;;6.84;nan;99424.56;5009462;28;20030;-69
2024/01/04 01:57:46;;;;;;;6.72;3.63;;;;;;;6.83;nan;99430.81;5009160;28;20503;-67
2024/01/04 02:00:13;;;;;;;6.68;4.15;;;;;;;6.82;nan;99427.41;4993028;28;20042;-68
2024/01/04 02:02:39;;;;;;;6.88;4.05;;;;;;;6.75;nan;99412.81;5010129;28;20026;-70
2024/01/04 02:05:05;;;;;;;7.05;4.15;;;;;;;6.81;nan;99432.84;5009515;28;20514;-68
2024/01/04 02:07:31;;;;;;;9.13;4.60;;;;;;;6.72;nan;99415.88;5008735;28;20394;-67
2024/01/04 02:09:57;;;;;;;11.10;4.63;;;;;;;6.79;nan;99420.00;4992583;28;20063;-68
2024/01/04 02:12:23;;;;;;;7.30;4.13;;;;;;;6.78;nan;99428.88;5008432;28;20084;-67
2024/01/04 02:14:52;;;;;;;8.85;4.53;;;;;;;6.79;nan;99427.06;5009610;28;20555;-68
2024/01/04 02:17:19;;;;;;;8.05;4.57;;;;;;;6.80;nan;99421.59;5007406;28;20092;-68
2024/01/04 02:19:46;;;;;;;8.77;4.72;;;;;;;6.84;nan;99423.75;5011072;28;20041;-67
2024/01/04 02:22:12;;;;;;;7.82;4.68;;;;;;;6.77;nan;99414.19;5009345;28;20068;-68
2024/01/04 02:24:37;;;;;;;8.23;4.65;;;;;;;6.76;nan;99406.56;4991273;28;20488;-69
2024/01/04 02:27:03;;;;;;;6.93;4.65;;;;;;;6.82;nan;99408.28;4989571;28;20038;-70
2024/01/04 02:29:29;;;;;;;11.25;5.43;;;;;;;6.77;nan;99408.16;5009479;28;20029;-67
2024/01/04 02:31:54;;;;;;;12.10;6.13;;;;;;;6.86;nan;99413.88;5009437;28;20037;-67
2024/01/04 02:34:19;;;;;;;10.25;5.60;;;;;;;6.89;nan;99416.81;5010833;28;20030;-68
2024/01/04 02:36:45;;;;;;;12.40;6.10;;;;;;;6.86;nan;99408.63;5009215;28;20476;-68
2024/01/04 02:39:11;;;;;;;10.05;5.95;;;;;;;6.90;nan;99410.59;5010097;28;20503;-67
2024/01/04 02:41:37;;;;;;;10.18;5.63;;;;;;;6.88;nan;99401.38;5009135;28;20010;-67
2024/01/04 02:44:02;;;;;;;8.90;5.57;;;;;;;6.86;nan;99390.31;5010430;28;20073;-67
2024/01/04 02:46:28;;;;;;;8.75;5.65;;;;;;;6.92;nan;99394.63;5006616;28;20025;-68
2024/01/04 02:48:53;;;;;;;16.98;6.38;;;;;;;6.95;nan;99391.59;5009792;28;20110;-68
2024/01/04 02:51:19;;;;;;;12.35;6.78;;;;;;;6.96;nan;99387.94;5008962;28;20479;-68
2024/01/04 02:53:44;;;;;;;10.10;6.25;;;;;;;6.96;nan;99383.50;4991925;28;20516;-69
2024/01/04 02:56:09;;;;;;;9.80;5.88;;;;;;;6.90;nan;99379.19;5008310;28;20061;-69
2024/01/04 02:58:35;;;;;;;10.80;7.13;;;;;;;6.87;nan;99382.25;5008491;28;20029;-67
2024/01/04 03:01:01;;;;;;;11.52;6.00;;;;;;;6.89;nan;99388.03;5008682;28;20571;-68
2024/01/04 03:03:26;;;;;;;12.40;6.00;;;;;;;6.90;nan;99379.19;4991556;28;20095;-68
2024/01/04 03:05:51;;;;;;;11.32;6.07;;;;;;;6.87;nan;99378.81;5010410;28;20022;-67
2024/01/04 03:08:17;;;;;;;16.15;7.22;;;;;;;6.79;nan;99362.44;5009158;28;20282;-68
2024/01/04 03:10:42;;;;;;;11.35;6.15;;;;;;;6.83;nan;99362.78;5008798;28;20492;-67
2024/01/04 03:13:08;;;;;;;12.48;6.45;;;;;;;6.79;nan;99359.03;5009310;28;20415;-69
2024/01/04 03:15:33;;;;;;;10.65;6.28;;;;;;;6.85;nan;99368.59;5009215;28;20030;-67
2024/01/04 03:17:59;;;;;;;11.27;6.50;;;;;;;6.80;nan;99353.56;5006699;28;20075;-69
2024/01/04 03:20:24;;;;;;;12.95;7.13;;;;;;;6.75;nan;99350.84;5009494;28;20025;-69
2024/01/04 03:22:49;;;;;;;18.60;7.78;;;;;;;6.80;nan;99350.16;5009328;28;20133;-66
2024/01/04 03:25:15;;;;;;;11.48;6.85;;;;;;;6.87;nan;99352.66;5010889;28;20468;-67
2024/01/04 03:27:41;;;;;;;12.35;7.40;;;;;;;6.76;nan;99331.50;5008711;28;20634;-68
2024/01/04 03:30:07;;;;;;;12.30;7.05;;;;;;;6.80;nan;99337.88;5012125;28;20060;-68
2024/01/04 03:32:33;;;;;;;13.85;7.22;;;;;;;6.93;nan;99351.75;5010912;28;20372;-69
2024/01/04 03:34:58;;;;;;;11.80;6.47;;;;;;;6.94;nan;99338.47;5014221;28;20033;-69
2024/01/04 03:37:24;;;;;;;12.52;7.35;;;;;;;6.90;nan;99328.66;5011913;28;20073;-68
2024/01/04 03:39:49;;;;;;;12.25;6.95;;;;;;;6.95;nan;99339.25;5012264;28;20033;-68
2024/01/04 03:42:15;;;;;;;13.77;7.65;;;;;;;6.95;nan;99339.25;5011828;28;20022;-69
2024/01/04 03:44:42;;;;;;;16.67;8.02;;;;;;;6.81;nan;99318.53;5012387;28;20022;-69
2024/01/04 03:47:08;;;;;;;16.13;8.25;;;;;;;6.95;nan;99342.66;5012287;28;21692;-69
2024/01/04 03:49:33;;;;;;;15.73;8.65;;;;;;;6.91;nan;99332.88;5012276;28;20032;-69
2024/01/04 03:51:59;;;;;;;13.43;7.03;;;;;;;6.91;nan;99315.34;5010016;28;20072;-67
2024/01/04 03:54:24;;;;;;;13.18;7.20;;;;;;;6.95;nan;99319.09;5012386;28;20018;-68
2024/01/04 03:56:49;;;;;;;11.00;6.90;;;;;;;6.97;nan;99309.22;5011656;28;20044;-69
2024/01/04 03:59:15;;;;;;;13.27;7.38;;;;;;;7.00;nan;99315.81;5010720;28;20060;-68
2024/01/04 04:01:47;;;;;;;12.05;6.90;;;;;;;6.94;nan;99299.19;5010150;28;20053;-68
2024/01/04 04:04:13;;;;;;;10.90;6.90;;;;;;;7.00;nan;99306.13;5012223;28;20478;-69
2024/01/04 04:06:39;;;;;;;13.85;6.75;;;;;;;7.02;nan;99295.44;5011956;28;20045;-69
2024/01/04 04:09:06;;;;;;;14.43;7.13;;;;;;;7.01;nan;99291.22;5012401;28;20061;-69
2024/01/04 04:11:32;;;;;;;12.23;6.90;;;;;;;7.09;nan;99305.78;5010649;28;20053;-68
2024/01/04 04:13:58;;;;;;;16.60;7.10;;;;;;;7.06;nan;99291.31;5012733;28;20483;-68
2024/01/04 04:16:23;;;;;;;11.43;6.60;;;;;;;6.92;nan;99267.22;5012370;28;20053;-69
2024/01/04 04:18:48;;;;;;;11.75;7.00;;;;;;;7.06;nan;99275.63;5010061;28;20042;-68
2024/01/04 04:21:24;;;;;;;12.35;7.10;;;;;;;7.07;nan;99279.84;5011043;28;20065;-68
2024/01/04 04:23:50;;;;;;;13.82;6.78;;;;;;;7.03;nan;99283.94;5012442;28;20503;-68
2024/01/04 04:26:20;;;;;;;14.57;7.28;;;;;;;7.09;nan;99274.34;4993340;28;20380;-69
2024/01/04 04:28:46;;;;;;;14.07;7.70;;;;;;;7.09;nan;99271.75;5011209;28;20118;-70
2024/01/04 04:31:16;;;;;;;12.77;6.68;;;;;;;7.06;nan;99262.53;5012740;28;20112;-68
2024/01/04 04:33:44;;;;;;;14.10;6.90;;;;;;;7.12;nan;99263.44;5010616;28;20018;-68
2024/01/04 04:36:10;;;;;;;11.70;6.97;;;;;;;7.10;nan;99263.66;5011433;28;20034;-68
2024/01/04 04:38:36;;;;;;;13.27;7.40;;;;;;;7.05;nan;99257.53;4993639;28;20561;-68
2024/01/04 04:41:06;;;;;;;11.23;7.15;;;;;;;6.93;nan;99240.00;4993331;28;20030;-69
2024/01/04 04:43:34;;;;;;;12.57;7.50;;;;;;;7.12;nan;99266.84;5011805;28;20026;-68
2024/01/04 04:46:09;;;;;;;14.17;7.03;;;;;;;7.03;nan;99253.31;5010471;28;20025;-68
2024/01/04 04:48:35;;;;;;;12.68;7.47;;;;;;;7.13;nan;99267.66;5011342;28;20278;-68
2024/01/04 04:51:00;;;;;;;13.60;7.20;;;;;;;7.10;nan;99258.44;5009317;28;20037;-69
2024/01/04 04:53:25;;;;;;;11.75;7.05;;;;;;;7.07;nan;99242.41;4992702;28;20045;-68
2024/01/04 04:55:51;;;;;;;11.82;7.18;;;;;;;7.01;nan;99246.72;5011615;28;20124;-68
2024/01/04 04:58:16;;;;;;;13.68;7.50;;;;;;;6.97;nan;99243.78;5011132;28;20495;-68
2024/01/04 05:00:42;;;;;;;13.35;7.20;;;;;;;7.14;nan;99271.88;5008151;28;20045;-68
2024/01/04 05:03:07;;;;;;;15.27;7.65;;;;;;;7.16;nan;99275.03;5011376;28;20080;-69
2024/01/04 05:05:35;;;;;;;12.90;7.18;;;;;;;7.15;nan;99276.06;5009693;28;20022;-67
2024/01/04 05:08:04;;;;;;;11.77;7.30;;;;;;;7.16;nan;99278.47;5009586;28;20515;-69
2024/01/04 05:10:30;;;;;;;12.40;7.40;;;;;;;7.19;nan;99278.00;4986390;28;20053;-68
2024/01/04 05:12:56;;;;;;;13.30;6.93;;;;;;;7.16;nan;99268.00;5010743;28;20108;-69
2024/01/04 05:15:21;;;;;;;12.63;6.72;;;;;;;7.11;nan;99240.91;5010669;28;20026;-69
2024/01/04 05:17:46;;;;;;;10.98;6.00;;;;;;;7.25;nan;99255.31;4991761;28;20403;-67
2024/01/04 05:20:12;;;;;;;7.35;4.93;;;;;;;7.32;nan;99245.53;5010301;28;20547;-69
2024/01/04 05:22:39;;;;;;;12.48;5.45;;;;;;;7.46;nan;99246.84;4991496;28;20068;-69
2024/01/04 05:25:05;;;;;;;11.63;5.53;;;;;;;7.55;nan;99244.66;5009805;28;20029;-68
2024/01/04 05:27:30;;;;;;;11.02;6.35;;;;;;;7.56;nan;99243.63;5009465;28;20061;-69
2024/01/04 05:29:56;;;;;;;9.52;4.70;;;;;;;7.59;nan;99244.97;5010338;28;20565;-68
2024/01/04 05:32:21;;;;;;;10.50;5.30;;;;;;;7.66;nan;99250.88;5010124;28;20037;-68
2024/01/04 05:34:47;;;;;;;8.20;4.40;;;;;;;7.65;nan;99254.53;5010852;28;20057;-68
2024/01/04 05:37:12;;;;;;;8.35;4.63;;;;;;;7.77;nan;99271.00;5010013;28;20026;-68
2024/01/04 05:39:38;;;;;;;13.13;4.90;;;;;;;7.82;nan;99275.56;5008589;28;20034;-68
2024/01/04 05:42:03;;;;;;;11.02;5.68;;;;;;;7.85;nan;99273.28;4990909;28;20400;-68
2024/01/04 05:44:29;;;;;;;8.75;4.45;;;;;;;7.87;nan;99257.28;5009983;28;20025;-68
2024/01/04 05:46:54;;;;;;;10.32;5.22;;;;;;;7.80;nan;99233.06;5010462;28;20445;-69
2024/01/04 05:49:20;;;;;;;11.57;5.03;;;;;;;7.91;nan;99261.03;5009790;28;20045;-69
2024/01/04 05:51:45;;;;;;;9.10;5.20;;;;;;;7.89;nan;99286.69;5008907;28;20026;-68
2024/01/04 05:54:11;;;;;;;11.80;6.70;;;;;;;7.88;nan;99306.09;5008848;28;20061;-69
2024/01/04 05:56:36;;;;;;;15.95;8.20;;;;;;;7.79;nan;99302.25;5006149;28;20108;-68
2024/01/04 05:59:02;;;;;;;17.45;8.10;;;;;;;7.73;nan;99317.03;4990411;28;20026;-68
2024/01/04 06:01:27;;;;;;;12.27;7.47;;;;;;;7.61;nan;99311.03;5008924;28;20683;-70
2024/01/04 06:03:52;;;;;;;17.73;6.35;;;;;;;7.57;nan;99284.53;4990299;28;20044;-67
2024/01/04 06:06:19;;;;;;;13.07;7.43;;;;;;;7.71;nan;99365.47;5009651;28;20380;-69
2024/01/04 06:08:45;;;;;;;13.73;7.15;;;;;;;7.78;nan;99387.09;4994269;28;20439;-68
2024/01/04 06:11:10;;;;;;;12.70;6.70;;;;;;;7.81;nan;99389.28;5009286;28;20033;-68
2024/01/04 06:13:36;;;;;;;16.02;7.63;;;;;;;7.80;nan;99374.56;5007526;28;20036;-67
2024/01/04 06:16:08;;;;;;;12.85;6.90;;;;;;;7.75;nan;99369.22;5010489;28;20108;-68
2024/01/04 06:18:37;;;;;;;10.85;5.97;;;;;;;7.83;nan;99379.38;4988092;28;20492;-67
2024/01/04 06:21:03;;;;;;;14.25;6.43;;;;;;;7.91;nan;99399.97;5007656;28;20096;-67
2024/01/04 06:23:29;;;;;;;12.00;6.13;;;;;;;7.92;nan;99404.16;5009549;28;20029;-67
2024/01/04 06:25:55;;;;;;;13.60;6.57;;;;;;;7.85;nan;99408.75;5008635;28;20022;-67
2024/01/04 06:28:21;;;;;;;15.20;8.05;;;;;;;7.73;nan;99393.03;5007596;28;20057;-68
2024/01/04 06:30:47;;;;;;;17.13;7.75;;;;;;;7.94;nan;99409.19;5008671;28;20029;-67
2024/01/04 06:33:13;;;;;;;15.88;7.85;;;;;;;7.92;nan;99406.00;5007861;28;20034;-69
2024/01/04 06:35:38;;;;;;;18.45;7.95;;;;;;;7.89;nan;99408.06;5005854;28;20040;-67
2024/01/04 06:38:07;;;;;;;19.92;9.55;;;;;;;7.84;nan;99392.22;4990561;28;20042;-68
2024/01/04 06:40:34;;;;;;;13.70;7.97;;;;;;;7.90;nan;99393.13;5008137;28;20496;-68
2024/01/04 06:43:00;;;;;;;14.68;7.38;;;;;;;7.86;nan;99392.78;5007253;28;20480;-68
2024/01/04 06:45:26;;;;;;;15.95;7.30;;;;;;;7.88;nan;99395.19;5007995;28;20033;-66
2024/01/04 06:47:51;;;;;;;13.27;7.30;;;;;;;7.83;nan;99382.00;5008246;28;20083;-66
2024/01/04 06:50:17;;;;;;;16.08;8.40;;;;;;;7.84;nan;99399.31;5007782;28;20034;-67
2024/01/04 06:52:42;;;;;;;20.58;10.55;;;;;;;7.79;nan;99386.88;5006333;28;20026;-67
2024/01/04 06:55:10;;;;;;;22.20;11.77;;;;;;;7.77;nan;99377.66;5007098;28;20034;-66
2024/01/04 06:57:35;;;;;;;22.58;11.35;;;;;;;7.75;nan;99370.03;5008892;28;20050;-67
2024/01/04 07:00:01;;;;;;;16.00;8.93;;;;;;;7.78;nan;99374.81;5007965;28;20065;-65
2024/01/04 07:02:27;;;;;;;14.13;7.93;;;;;;;7.76;nan;99376.88;5007393;28;20042;-66
2024/01/04 07:04:52;;;;;;;17.63;8.38;;;;;;;7.67;nan;99362.53;5009959;28;20478;-66
2024/01/04 07:07:17;;;;;;;17.17;9.43;;;;;;;7.69;nan;99360.47;5013105;28;20037;-65
2024/01/04 07:09:43;;;;;;;19.15;9.15;;;;;;;7.77;nan;99367.19;5012557;28;20038;-65
2024/01/04 07:12:08;;;;;;;15.63;8.57;;;;;;;7.69;nan;99344.75;5008693;28;20104;-67
2024/01/04 07:14:38;;;;;;;14.27;8.50;;;;;;;7.59;nan;99332.25;5011338;28;20064;-65
2024/01/04 07:17:04;;;;;;;13.32;6.93;;;;;;;7.69;nan;99351.84;5011855;28;20128;-67
2024/01/04 07:19:29;;;;;;;12.48;6.63;;;;;;;7.66;nan;99359.13;5009550;28;20073;-67
2024/01/04 07:21:55;;;;;;;13.10;7.20;;;;;;;7.57;nan;99341.38;5011039;28;20103;-66
2024/01/04 07:24:21;;;;;;;14.35;6.80;;;;;;;7.60;nan;99349.56;5011218;28;20037;-67
2024/01/04 07:26:47;;;;;;;11.13;7.65;;;;;;;7.60;nan;99349.56;5010578;28;20482;-68
2024/01/04 07:29:13;;;;;;;13.15;7.00;;;;;;;7.16;nan;99302.03;5009619;28;20033;-66
2024/01/04 07:31:39;;;;;;;15.98;8.05;;;;;;;7.53;nan;99356.75;5010709;28;20126;-66
2024/01/04 07:34:04;;;;;;;17.05;8.32;;;;;;;7.58;nan;99372.56;5009915;28;20678;-69
2024/01/04 07:36:29;;;;;;;17.23;8.40;;;;;;;7.46;nan;99353.44;4995468;28;20030;-70
2024/01/04 07:38:55;;;;;;;16.08;8.68;;;;;;;7.54;nan;99381.09;5011804;28;20029;-69
2024/01/04 07:41:20;;;;;;;16.35;9.02;;;;;;;7.48;nan;99355.84;5011892;28;20017;-69
2024/01/04 07:43:47;;;;;;;14.35;8.10;;;;;;;7.38;nan;99348.56;5011635;28;20029;-69
2024/01/04 07:46:12;;;;;;;15.88;8.52;;;;;;;7.43;nan;99356.53;5014508;28;20021;-69
2024/01/04 07:48:38;;;;;;;16.15;8.70;;;;;;;7.32;nan;99331.94;4992826;28;20034;-70
2024/01/04 07:51:04;;;;;;;14.40;8.90;;;;;;;7.45;nan;99330.91;5012401;28;20109;-70
2024/01/04 07:53:29;;;;;;;17.90;8.80;;;;;;;7.44;nan;99345.81;5014857;28;20441;-70
2024/01/04 07:55:58;;;;;;;15.95;8.93;;;;;;;7.44;nan;99356.28;5014679;28;20034;-66
2024/01/04 07:58:24;;;;;;;;;;;;;;;7.43;nan;99354.72;5012857;28;20120;-67
2024/01/04 08:00:49;;;;;;;15.65;8.52;;;;;;;7.37;nan;99339.91;5014096;28;20332;-67
2024/01/04 08:03:15;;;;;;;15.75;8.05;;;;;;;7.22;nan;99318.63;4976517;28;20083;-67
2024/01/04 08:05:40;;;;;;;13.60;7.15;;;;;;;7.28;nan;99322.16;5013511;28;20064;-67
2024/01/04 08:08:06;;;;;;;15.15;6.97;;;;;;;7.16;nan;99314.31;5012409;28;20048;-67
2024/01/04 08:10:31;;;;;;;11.25;6.28;;;;;;;7.32;nan;99334.56;5010201;28;20045;-67
2024/01/04 08:12:57;;;;;;;11.32;6.68;;;;;;;7.29;nan;99314.06;5012993;28;20099;-68
2024/01/04 08:15:22;;;;;;;14.13;6.22;;;;;;;7.41;nan;99327.94;5012529;28;20026;-68
2024/01/04 08:17:48;;;;;;;12.40;5.95;;;;;;;7.37;nan;99326.81;5012771;28;20099;-67
2024/01/04 08:20:14;;;;;;;10.75;5.40;;;;;;;7.38;nan;99325.78;5012405;28;20464;-67
2024/01/04 08:22:40;;;;;;;12.93;5.47;;;;;;;7.32;nan;99316.22;5011787;28;20495;-68
2024/01/04 08:25:06;;;;;;;9.43;4.68;;;;;;;7.32;nan;99312.81;4995393;28;20486;-68
2024/01/04 08:27:32;;;;;;;10.63;4.68;;;;;;;7.40;nan;99321.13;5010884;28;20018;-69
2024/01/04 08:29:57;;;;;;;8.75;4.35;;;;;;;7.42;nan;99313.03;4995568;28;20503;-68
2024/01/04 08:32:23;;;;;;;7.03;4.22;;;;;;;7.36;nan;99312.13;5011020;28;20030;-68
2024/01/04 08:34:48;;;;;;;9.52;5.55;;;;;;;7.35;nan;99317.59;5011955;28;20141;-69
2024/01/04 08:37:14;;;;;;;9.18;6.00;;;;;;;7.46;nan;99340.34;4994870;28;20025;-68
2024/01/04 08:39:40;;;;;;;9.95;6.45;;;;;;;7.48;nan;99340.13;5010336;28;20038;-68
2024/01/04 08:42:06;;;;;;;13.00;6.78;;;;;;;7.49;nan;99339.09;4993992;28;20041;-71
2024/01/04 08:44:31;;;;;;;13.07;6.53;;;;;;;7.39;nan;99318.72;5012042;28;20033;-71
2024/01/04 08:46:57;;;;;;;13.40;6.43;;;;;;;7.42;nan;99323.50;5011269;28;20026;-70
2024/01/04 08:49:22;;;;;;;10.60;6.43;;;;;;;7.44;nan;99327.47;4993784;28;20547;-71
2024/01/04 08:51:47;;;;;;;13.65;6.32;;;;;;;7.55;nan;99338.19;5011196;28;20030;-71
2024/01/04 08:54:13;;;;;;;13.85;7.47;;;;;;;7.49;nan;99333.84;5009794;28;20085;-71
2024/01/04 08:56:38;;;;;;;15.75;6.82;;;;;;;7.56;nan;99345.00;5009992;28;20104;-71
2024/01/04 08:59:04;;;;;;;16.65;7.55;;;;;;;7.53;nan;99340.22;5010785;28;20072;-68
2024/01/04 09:01:29;;;;;;;14.85;7.15;;;;;;;7.61;nan;99338.06;5010983;28;20033;-68
2024/01/04 09:03:58;;;;;;;14.05;7.28;;;;;;;7.51;nan;99326.56;4992175;28;20037;-68
2024/01/04 09:06:23;;;;;;;18.55;8.80;;;;;;;7.39;nan;99311.66;5010443;28;20017;-71
2024/01/04 09:08:49;;;;;;;17.45;8.40;;;;;;;7.65;nan;99349.66;5010986;28;20030;-72
2024/01/04 09:11:16;;;;;;;13.55;8.10;;;;;;;7.67;nan;99355.47;5010754;28;20122;-69
2024/01/04 09:13:44;;;;;;;15.30;8.00;;;;;;;7.66;nan;99355.69;5011222;28;20021;-69
2024/01/04 09:16:10;;;;;;;19.75;9.85;;;;;;;7.60;nan;99349.56;5010817;28;20391;-69
2024/01/04 09:18:35;;;;;;;21.10;10.52;;;;;;;7.71;nan;99370.72;5011370;28;20029;-68
2024/01/04 09:21:01;;;;;;;17.05;8.32;;;;;;;7.73;nan;99369.44;5010811;28;20046;-70
2024/01/04 09:23:27;;;;;;;15.73;8.30;;;;;;;7.79;nan;99380.84;5011021;28;20033;-71
2024/01/04 09:25:52;;;;;;;17.13;9.13;;;;;;;7.75;nan;99366.63;4991426;28;20053;-71
2024/01/04 09:28:18;;;;;;;19.10;8.48;;;;;;;7.84;nan;99375.72;4991539;28;20479;-71
2024/01/04 09:30:44;;;;;;;17.98;9.18;;;;;;;7.96;nan;99394.81;5010489;28;20030;-70
2024/01/04 09:33:11;;;;;;;14.65;8.18;;;;;;;8.02;nan;99396.53;5010753;28;20032;-70
2024/01/04 09:35:37;;;;;;;16.30;8.32;;;;;;;8.10;nan;99397.97;5010732;28;20034;-72
2024/01/04 09:38:02;;;;;;;11.98;6.95;;;;;;;8.08;nan;99384.31;5011652;28;20052;-71
2024/01/04 09:40:28;;;;;;;12.90;6.82;;;;;;;8.23;nan;99400.31;5009973;28;20480;-71
2024/01/04 09:42:55;;;;;;;11.88;6.40;;;;;;;8.19;nan;99386.09;4994487;28;20033;-68
2024/01/04 09:45:22;;;;;;;13.60;6.95;;;;;;;8.31;nan;99399.16;5009884;28;20026;-67
2024/01/04 09:47:56;;;;;;;14.18;6.82;;;;;;;8.27;nan;99388.34;5011254;28;20030;-71
2024/01/04 09:50:22;;;;;;;13.27;6.20;;;;;;;8.45;nan;99408.38;5008597;28;20032;-71
2024/01/04 09:52:54;;;;;;;13.80;6.65;;;;;;;8.47;nan;99401.03;5010310;28;20029;-70
2024/01/04 09:55:20;;;;;;;11.02;6.50;;;;;;;8.48;nan;99389.53;5010903;28;20499;-71
2024/01/04 09:57:46;;;;;;;15.68;6.63;;;;;;;8.55;nan;99396.44;4992743;28;20033;-71
2024/01/04 10:00:12;;;;;;;12.65;6.63;;;;;;;8.51;nan;99390.88;5010242;28;20018;-71
2024/01/04 10:02:44;;;;;;;15.35;7.28;;;;;;;8.73;nan;99401.50;5008962;28;20057;-72
2024/01/04 10:05:18;;;;;;;11.95;7.07;;;;;;;8.73;nan;99407.53;4994448;28;20029;-71
2024/01/04 10:07:52;;;;;;;12.43;6.50;;;;;;;8.77;nan;99413.13;5000748;28;20026;-71
2024/01/04 10:10:20;;;;;;;9.05;5.80;;;;;;;8.67;nan;99392.75;5009676;28;20025;-68
2024/01/04 10:12:48;;;;;;;16.33;6.63;;;;;;;8.70;nan;99400.13;5009709;28;20025;-71
2024/01/04 10:15:15;;;;;;;11.63;6.32;;;;;;;8.63;nan;99381.13;5011665;28;20026;-71
2024/01/04 10:17:44;;;;;;;15.57;6.80;;;;;;;8.77;nan;99389.50;4983211;28;20417;-71
2024/01/04 10:20:10;;;;;;;13.35;6.18;;;;;;;8.79;nan;99386.63;4991455;28;20106;-71
2024/01/04 10:22:49;;;;;;;10.35;5.95;;;;;;;8.81;nan;99392.44;4991662;28;20069;-71
2024/01/04 10:25:18;;;;;;;14.30;5.88;;;;;;;8.94;nan;99398.16;5010764;28;20160;-70
2024/01/04 10:27:54;;;;;;;15.07;6.30;;;;;;;8.85;nan;99396.97;5008661;28;20021;-70
2024/01/04 10:30:20;;;;;;;11.27;5.55;;;;;;;8.92;nan;99394.97;4992239;28;20332;-71
2024/01/04 10:32:50;;;;;;;11.68;5.57;;;;;;;9.03;nan;99410.91;4990477;28;20096;-71
2024/01/04 10:35:15;;;;;;;12.52;5.97;;;;;;;9.00;nan;99396.41;5010008;28;20040;-71
2024/01/04 10:37:41;;;;;;;14.63;5.63;;;;;;;9.01;nan;99392.75;4993891;28;20551;-71
2024/01/04 10:40:09;;;;;;;15.10;6.95;;;;;;;9.11;nan;99406.03;5011759;28;20112;-71
2024/01/04 10:42:35;;;;;;;10.40;5.27;;;;;;;9.12;nan;99402.41;5010511;28;20030;-71
2024/01/04 10:45:01;;;;;;;12.98;4.68;;;;;;;9.07;nan;99393.63;5009457;28;20275;-70
2024/01/04 10:47:27;;;;;;;9.95;4.60;;;;;;;9.03;nan;99384.66;4994602;28;20112;-71
2024/01/04 10:49:59;;;;;;;10.18;4.80;;;;;;;9.19;nan;99398.78;5008748;28;20069;-70
2024/01/04 10:52:33;;;;;;;16.60;6.50;;;;;;;9.11;nan;99387.66;5010087;28;20392;-71
2024/01/04 10:54:59;;;;;;;13.50;5.38;;;;;;;9.16;nan;99385.09;5010649;28;20030;-72
2024/01/04 10:57:28;;;;;;;12.40;4.78;;;;;;;9.31;nan;99408.19;5008152;28;20037;-72
2024/01/04 10:59:55;;;;;;;10.05;4.60;;;;;;;9.24;nan;99386.56;5012062;28;20121;-72
2024/01/04 11:02:22;;;;;;;8.60;4.78;;;;;;;9.19;nan;99368.06;5010857;28;20033;-72
2024/01/04 11:04:50;;;;;;;11.38;4.90;;;;;;;9.25;nan;99372.38;5011754;28;20442;-70
2024/01/04 11:07:16;;;;;;;10.38;4.25;;;;;;;9.23;nan;99366.56;4990904;28;20022;-71
2024/01/04 11:09:43;;;;;;;9.50;4.40;;;;;;;9.38;nan;99389.63;5006245;28;20057;-71
2024/01/04 11:12:08;;;;;;;7.20;4.40;;;;;;;9.42;nan;99389.94;5010811;28;20547;-71
2024/01/04 11:14:34;;;;;;;12.63;4.30;;;;;;;9.42;nan;99377.59;5007967;28;20176;-71
2024/01/04 11:17:21;;;;;;;11.25;4.68;;;;;;;9.47;nan;99392.63;4993008;28;20018;-71
2024/01/04 11:19:52;;;;;;;11.70;4.32;;;;;;;9.48;nan;99392.41;5007385;28;20526;-70
2024/01/04 11:22:26;;;;;;;8.13;5.15;;;;;;;9.51;nan;99402.44;5008448;28;20152;-71
2024/01/04 11:25:22;;;;;;;13.00;5.38;;;;;;;9.55;nan;99402.72;5007459;28;20531;-70
2024/01/04 11:27:48;;;;;;;11.23;5.88;;;;;;;9.50;nan;99390.31;4989179;28;20041;-67
2024/01/04 11:30:14;;;;;;;12.68;6.10;;;;;;;9.57;nan;99387.50;5007846;28;20099;-67
2024/01/04 11:32:43;;;;;;;10.90;5.93;;;;;;;9.66;nan;99401.81;5007191;28;20030;-67
2024/01/04 11:35:13;;;;;;;11.48;5.97;;;;;;;9.67;nan;99390.25;5008403;28;20033;-68
2024/01/04 11:37:38;;;;;;;11.38;6.25;;;;;;;9.86;nan;99406.53;5007150;28;20041;-67
2024/01/04 11:40:07;;;;;;;10.70;5.50;;;;;;;9.86;nan;99393.41;5006850;28;20025;-67
2024/01/04 11:42:35;;;;;;;10.13;5.75;;;;;;;10.08;nan;99398.66;5008205;28;20022;-68
2024/01/04 11:45:04;;;;;;;11.38;5.55;;;;;;;10.18;nan;99396.16;5007342;28;20416;-67
2024/01/04 11:47:34;;;;;;;;;;;;;;;10.29;nan;99397.06;5008036;28;20030;-67
2024/01/04 11:49:59;;;;;;;10.25;5.00;;;;;;;10.39;nan;99393.75;5009484;28;19967;-66